sensor_id;sensor_type;location;lat;lon;timestamp;temperature;humidity
65072;DHT22;51663;52.310;17.016;2022-11-04T00:01:21;30.40;26.90
65072;DHT22;51663;52.310;17.016;2022-11-04T00:04:25;30.30;26.90
65072;DHT22;51663;52.310;17.016;2022-11-04T00:07:27;30.70;26.70
65072;DHT22;51663;52.310;17.016;2022-11-04T00:10:55;30.70;26.70
65072;DHT22;51663;52.310;17.016;2022-11-04T00:14:18;30.70;26.50
65072;DHT22;51663;52.310;17.016;2022-11-04T00:17:20;30.70;26.60
65072;DHT22;51663;52.310;17.016;2022-11-04T00:20:23;30.90;26.40
65072;DHT22;51663;52.310;17.016;2022-11-04T00:23:44;30.90;26.40
65072;DHT22;51663;52.310;17.016;2022-11-04T00:27:17;30.80;26.40
65072;DHT22;51663;52.310;17.016;2022-11-04T00:30:38;30.80;26.60
65072;DHT22;51663;52.310;17.016;2022-11-04T00:33:40;30.80;26.50
65072;DHT22;51663;52.310;17.016;2022-11-04T00:36:42;30.70;26.50
65072;DHT22;51663;52.310;17.016;2022-11-04T00:39:44;30.70;26.60
65072;DHT22;51663;52.310;17.016;2022-11-04T00:42:46;30.60;26.60
65072;DHT22;51663;52.310;17.016;2022-11-04T00:45:48;30.50;26.80
65072;DHT22;51663;52.310;17.016;2022-11-04T00:48:51;30.50;26.90
65072;DHT22;51663;52.310;17.016;2022-11-04T00:51:53;30.20;27.10
65072;DHT22;51663;52.310;17.016;2022-11-04T00:54:55;30.20;27.20
65072;DHT22;51663;52.310;17.016;2022-11-04T00:57:57;30.50;26.90
65072;DHT22;51663;52.310;17.016;2022-11-04T01:01:00;30.60;26.30
65072;DHT22;51663;52.310;17.016;2022-11-04T01:04:08;30.50;27.00
65072;DHT22;51663;52.310;17.016;2022-11-04T01:07:10;30.50;26.90
65072;DHT22;51663;52.310;17.016;2022-11-04T01:10:12;30.50;26.80
65072;DHT22;51663;52.310;17.016;2022-11-04T01:13:14;30.10;27.10
65072;DHT22;51663;52.310;17.016;2022-11-04T01:16:17;30.30;27.20
65072;DHT22;51663;52.310;17.016;2022-11-04T01:19:20;30.30;27.00
65072;DHT22;51663;52.310;17.016;2022-11-04T01:22:22;30.40;27.10
65072;DHT22;51663;52.310;17.016;2022-11-04T01:25:24;30.50;27.00
65072;DHT22;51663;52.310;17.016;2022-11-04T01:28:26;30.40;27.00
65072;DHT22;51663;52.310;17.016;2022-11-04T01:31:30;30.40;27.00
65072;DHT22;51663;52.310;17.016;2022-11-04T01:34:32;30.40;27.10
65072;DHT22;51663;52.310;17.016;2022-11-04T01:37:34;30.60;26.90
65072;DHT22;51663;52.310;17.016;2022-11-04T01:40:38;30.50;26.90
65072;DHT22;51663;52.310;17.016;2022-11-04T01:47:35;30.70;26.80
65072;DHT22;51663;52.310;17.016;2022-11-04T01:50:40;30.70;26.80
65072;DHT22;51663;52.310;17.016;2022-11-04T01:53:42;30.50;26.80
65072;DHT22;51663;52.310;17.016;2022-11-04T01:56:47;30.50;27.10
65072;DHT22;51663;52.310;17.016;2022-11-04T01:59:49;30.20;27.20
65072;DHT22;51663;52.310;17.016;2022-11-04T02:02:59;30.20;27.20
65072;DHT22;51663;52.310;17.016;2022-11-04T02:06:03;30.30;27.30
65072;DHT22;51663;52.310;17.016;2022-11-04T02:09:06;30.20;27.20
65072;DHT22;51663;52.310;17.016;2022-11-04T02:12:13;30.40;27.30
65072;DHT22;51663;52.310;17.016;2022-11-04T02:16:13;30.20;27.20
65072;DHT22;51663;52.310;17.016;2022-11-04T02:23:11;30.40;27.30
65072;DHT22;51663;52.310;17.016;2022-11-04T02:30:12;30.40;27.30
65072;DHT22;51663;52.310;17.016;2022-11-04T02:33:25;30.40;27.20
65072;DHT22;51663;52.310;17.016;2022-11-04T02:40:04;30.40;27.20
65072;DHT22;51663;52.310;17.016;2022-11-04T02:56:10;30.40;27.10
65072;DHT22;51663;52.310;17.016;2022-11-04T02:59:19;30.50;26.90
65072;DHT22;51663;52.310;17.016;2022-11-04T03:02:31;30.50;26.90
65072;DHT22;51663;52.310;17.016;2022-11-04T03:05:36;30.40;26.70
65072;DHT22;51663;52.310;17.016;2022-11-04T03:08:46;30.10;27.10
65072;DHT22;51663;52.310;17.016;2022-11-04T03:11:52;30.20;27.20
65072;DHT22;51663;52.310;17.016;2022-11-04T03:15:00;30.20;27.10
65072;DHT22;51663;52.310;17.016;2022-11-04T03:18:26;30.30;27.20
65072;DHT22;51663;52.310;17.016;2022-11-04T03:21:33;30.00;27.20
65072;DHT22;51663;52.310;17.016;2022-11-04T03:24:38;30.10;27.20
65072;DHT22;51663;52.310;17.016;2022-11-04T03:27:46;30.10;27.30
65072;DHT22;51663;52.310;17.016;2022-11-04T03:30:53;30.00;27.30
65072;DHT22;51663;52.310;17.016;2022-11-04T03:33:57;30.00;27.40
65072;DHT22;51663;52.310;17.016;2022-11-04T03:36:59;30.00;27.40
65072;DHT22;51663;52.310;17.016;2022-11-04T03:40:03;30.00;27.40
65072;DHT22;51663;52.310;17.016;2022-11-04T03:43:18;29.90;27.50
65072;DHT22;51663;52.310;17.016;2022-11-04T03:46:22;29.60;27.60
65072;DHT22;51663;52.310;17.016;2022-11-04T03:49:26;29.60;27.90
65072;DHT22;51663;52.310;17.016;2022-11-04T03:52:28;29.80;27.80
65072;DHT22;51663;52.310;17.016;2022-11-04T04:06:26;29.90;27.70
65072;DHT22;51663;52.310;17.016;2022-11-04T04:09:37;29.90;27.70
65072;DHT22;51663;52.310;17.016;2022-11-04T04:12:40;29.90;27.50
65072;DHT22;51663;52.310;17.016;2022-11-04T04:18:55;29.90;27.50
65072;DHT22;51663;52.310;17.016;2022-11-04T04:22:08;30.10;27.40
65072;DHT22;51663;52.310;17.016;2022-11-04T04:25:14;30.10;27.30
65072;DHT22;51663;52.310;17.016;2022-11-04T04:28:37;30.20;27.20
65072;DHT22;51663;52.310;17.016;2022-11-04T04:31:40;30.20;27.20
65072;DHT22;51663;52.310;17.016;2022-11-04T04:34:51;30.20;27.10
65072;DHT22;51663;52.310;17.016;2022-11-04T04:38:25;30.10;27.00
65072;DHT22;51663;52.310;17.016;2022-11-04T04:41:46;30.10;27.10
65072;DHT22;51663;52.310;17.016;2022-11-04T04:45:09;30.10;27.10
65072;DHT22;51663;52.310;17.016;2022-11-04T04:48:11;30.00;27.30
65072;DHT22;51663;52.310;17.016;2022-11-04T04:51:14;30.00;27.40
65072;DHT22;51663;52.310;17.016;2022-11-04T04:54:16;30.00;27.40
65072;DHT22;51663;52.310;17.016;2022-11-04T04:57:19;30.00;27.30
65072;DHT22;51663;52.310;17.016;2022-11-04T05:00:21;30.20;27.20
65072;DHT22;51663;52.310;17.016;2022-11-04T05:03:23;30.20;27.10
65072;DHT22;51663;52.310;17.016;2022-11-04T05:06:25;30.20;26.80
65072;DHT22;51663;52.310;17.016;2022-11-04T05:09:28;30.20;26.70
65072;DHT22;51663;52.310;17.016;2022-11-04T05:12:30;30.10;27.00
65072;DHT22;51663;52.310;17.016;2022-11-04T05:15:52;30.10;27.10
65072;DHT22;51663;52.310;17.016;2022-11-04T05:18:54;29.90;27.20
65072;DHT22;51663;52.310;17.016;2022-11-04T05:21:57;29.70;27.40
65072;DHT22;51663;52.310;17.016;2022-11-04T05:24:59;29.70;27.40
65072;DHT22;51663;52.310;17.016;2022-11-04T05:28:02;29.50;27.60
65072;DHT22;51663;52.310;17.016;2022-11-04T05:31:05;29.50;27.60
65072;DHT22;51663;52.310;17.016;2022-11-04T05:34:10;29.50;27.60
65072;DHT22;51663;52.310;17.016;2022-11-04T05:37:12;29.50;27.60
65072;DHT22;51663;52.310;17.016;2022-11-04T05:40:14;29.50;27.60
65072;DHT22;51663;52.310;17.016;2022-11-04T05:43:16;29.30;27.70
65072;DHT22;51663;52.310;17.016;2022-11-04T05:46:18;29.30;27.80
65072;DHT22;51663;52.310;17.016;2022-11-04T05:49:20;29.30;27.80
65072;DHT22;51663;52.310;17.016;2022-11-04T05:52:23;29.20;27.80
65072;DHT22;51663;52.310;17.016;2022-11-04T05:55:25;29.20;27.90
65072;DHT22;51663;52.310;17.016;2022-11-04T05:58:27;29.40;27.90
65072;DHT22;51663;52.310;17.016;2022-11-04T06:04:32;29.50;27.60
65072;DHT22;51663;52.310;17.016;2022-11-04T06:07:34;29.50;27.60
65072;DHT22;51663;52.310;17.016;2022-11-04T06:10:36;29.30;27.60
65072;DHT22;51663;52.310;17.016;2022-11-04T06:13:38;29.40;27.70
65072;DHT22;51663;52.310;17.016;2022-11-04T06:16:40;29.40;27.70
65072;DHT22;51663;52.310;17.016;2022-11-04T06:19:42;29.50;27.80
65072;DHT22;51663;52.310;17.016;2022-11-04T06:22:45;29.60;27.60
65072;DHT22;51663;52.310;17.016;2022-11-04T06:25:47;29.70;27.60
65072;DHT22;51663;52.310;17.016;2022-11-04T06:28:49;29.80;27.70
65072;DHT22;51663;52.310;17.016;2022-11-04T06:31:51;29.60;27.80
65072;DHT22;51663;52.310;17.016;2022-11-04T06:34:53;29.50;27.90
65072;DHT22;51663;52.310;17.016;2022-11-04T06:37:55;29.70;27.80
65072;DHT22;51663;52.310;17.016;2022-11-04T06:40:58;29.70;27.80
65072;DHT22;51663;52.310;17.016;2022-11-04T06:44:00;29.80;27.70
65072;DHT22;51663;52.310;17.016;2022-11-04T06:47:03;30.00;27.70
65072;DHT22;51663;52.310;17.016;2022-11-04T06:50:05;29.80;27.80
65072;DHT22;51663;52.310;17.016;2022-11-04T06:53:07;29.50;28.00
65072;DHT22;51663;52.310;17.016;2022-11-04T06:56:10;29.50;28.10
65072;DHT22;51663;52.310;17.016;2022-11-04T06:59:17;29.60;28.10
65072;DHT22;51663;52.310;17.016;2022-11-04T07:02:19;29.90;27.90
65072;DHT22;51663;52.310;17.016;2022-11-04T07:05:22;30.00;27.70
65072;DHT22;51663;52.310;17.016;2022-11-04T07:08:24;30.00;27.70
65072;DHT22;51663;52.310;17.016;2022-11-04T07:11:29;30.10;27.70
65072;DHT22;51663;52.310;17.016;2022-11-04T07:14:32;30.20;27.70
65072;DHT22;51663;52.310;17.016;2022-11-04T07:17:34;30.10;27.80
65072;DHT22;51663;52.310;17.016;2022-11-04T07:20:36;30.40;27.60
65072;DHT22;51663;52.310;17.016;2022-11-04T07:23:39;30.40;27.60
65072;DHT22;51663;52.310;17.016;2022-11-04T07:26:41;30.20;27.90
65072;DHT22;51663;52.310;17.016;2022-11-04T07:29:43;30.40;27.70
65072;DHT22;51663;52.310;17.016;2022-11-04T07:32:46;30.50;27.50
65072;DHT22;51663;52.310;17.016;2022-11-04T07:35:49;30.70;27.40
65072;DHT22;51663;52.310;17.016;2022-11-04T07:38:56;30.60;27.30
65072;DHT22;51663;52.310;17.016;2022-11-04T07:41:58;30.90;27.10
65072;DHT22;51663;52.310;17.016;2022-11-04T07:45:01;31.00;27.10
65072;DHT22;51663;52.310;17.016;2022-11-04T07:48:03;30.80;27.10
65072;DHT22;51663;52.310;17.016;2022-11-04T07:51:07;31.00;27.20
65072;DHT22;51663;52.310;17.016;2022-11-04T07:54:10;31.10;27.10
65072;DHT22;51663;52.310;17.016;2022-11-04T07:57:11;31.30;27.00
65072;DHT22;51663;52.310;17.016;2022-11-04T08:00:14;31.30;27.00
65072;DHT22;51663;52.310;17.016;2022-11-04T08:03:17;31.60;26.90
65072;DHT22;51663;52.310;17.016;2022-11-04T08:06:21;31.70;26.90
65072;DHT22;51663;52.310;17.016;2022-11-04T08:09:23;31.80;26.80
65072;DHT22;51663;52.310;17.016;2022-11-04T08:12:25;32.10;26.70
65072;DHT22;51663;52.310;17.016;2022-11-04T08:15:28;32.20;26.60
65072;DHT22;51663;52.310;17.016;2022-11-04T08:18:32;31.90;26.70
65072;DHT22;51663;52.310;17.016;2022-11-04T08:21:34;31.80;26.90
65072;DHT22;51663;52.310;17.016;2022-11-04T08:24:36;31.90;26.70
65072;DHT22;51663;52.310;17.016;2022-11-04T08:27:39;32.00;26.70
65072;DHT22;51663;52.310;17.016;2022-11-04T08:30:54;32.20;26.70
65072;DHT22;51663;52.310;17.016;2022-11-04T08:33:57;32.20;26.60
65072;DHT22;51663;52.310;17.016;2022-11-04T08:37:00;32.30;26.80
65072;DHT22;51663;52.310;17.016;2022-11-04T08:40:03;32.50;26.80
65072;DHT22;51663;52.310;17.016;2022-11-04T08:43:06;32.40;26.70
65072;DHT22;51663;52.310;17.016;2022-11-04T08:46:10;32.20;26.80
65072;DHT22;51663;52.310;17.016;2022-11-04T08:49:13;32.50;26.70
65072;DHT22;51663;52.310;17.016;2022-11-04T08:52:21;32.40;26.60
65072;DHT22;51663;52.310;17.016;2022-11-04T08:55:27;32.30;26.60
65072;DHT22;51663;52.310;17.016;2022-11-04T08:58:30;32.40;26.60
65072;DHT22;51663;52.310;17.016;2022-11-04T09:01:34;32.50;26.60
65072;DHT22;51663;52.310;17.016;2022-11-04T09:04:37;32.20;26.70
65072;DHT22;51663;52.310;17.016;2022-11-04T09:07:39;32.50;26.50
65072;DHT22;51663;52.310;17.016;2022-11-04T09:10:43;32.40;26.60
65072;DHT22;51663;52.310;17.016;2022-11-04T09:13:46;32.40;26.50
65072;DHT22;51663;52.310;17.016;2022-11-04T09:16:48;32.60;26.60
65072;DHT22;51663;52.310;17.016;2022-11-04T09:19:50;32.50;26.50
65072;DHT22;51663;52.310;17.016;2022-11-04T09:22:54;32.20;26.70
65072;DHT22;51663;52.310;17.016;2022-11-04T09:26:01;32.10;26.90
65072;DHT22;51663;52.310;17.016;2022-11-04T09:29:04;32.30;26.70
65072;DHT22;51663;52.310;17.016;2022-11-04T09:32:07;32.50;26.90
65072;DHT22;51663;52.310;17.016;2022-11-04T09:35:09;32.20;26.80
65072;DHT22;51663;52.310;17.016;2022-11-04T09:38:12;32.20;27.20
65072;DHT22;51663;52.310;17.016;2022-11-04T09:41:41;32.20;27.00
65072;DHT22;51663;52.310;17.016;2022-11-04T09:45:18;32.40;27.00
65072;DHT22;51663;52.310;17.016;2022-11-04T09:48:38;32.30;27.10
65072;DHT22;51663;52.310;17.016;2022-11-04T09:51:42;32.10;27.20
65072;DHT22;51663;52.310;17.016;2022-11-04T09:55:10;32.50;27.20
65072;DHT22;51663;52.310;17.016;2022-11-04T09:58:14;32.50;27.00
65072;DHT22;51663;52.310;17.016;2022-11-04T10:01:27;32.50;26.80
65072;DHT22;51663;52.310;17.016;2022-11-04T10:11:36;32.50;27.00
65072;DHT22;51663;52.310;17.016;2022-11-04T10:14:52;32.90;26.80
65072;DHT22;51663;52.310;17.016;2022-11-04T10:21:38;32.60;26.70
65072;DHT22;51663;52.310;17.016;2022-11-04T10:28:10;32.80;26.60
65072;DHT22;51663;52.310;17.016;2022-11-04T10:31:16;33.00;26.40
65072;DHT22;51663;52.310;17.016;2022-11-04T10:34:42;33.00;26.40
65072;DHT22;51663;52.310;17.016;2022-11-04T10:37:50;33.20;26.30
65072;DHT22;51663;52.310;17.016;2022-11-04T10:40:54;33.00;26.20
65072;DHT22;51663;52.310;17.016;2022-11-04T10:44:03;32.90;26.10
65072;DHT22;51663;52.310;17.016;2022-11-04T10:47:14;32.90;26.30
65072;DHT22;51663;52.310;17.016;2022-11-04T10:53:45;32.90;26.10
65072;DHT22;51663;52.310;17.016;2022-11-04T10:56:54;32.60;26.80
65072;DHT22;51663;52.310;17.016;2022-11-04T10:59:59;32.70;26.50
65072;DHT22;51663;52.310;17.016;2022-11-04T11:03:01;32.60;26.90
65072;DHT22;51663;52.310;17.016;2022-11-04T11:06:13;32.80;27.40
65072;DHT22;51663;52.310;17.016;2022-11-04T11:09:30;32.90;26.70
65072;DHT22;51663;52.310;17.016;2022-11-04T11:12:33;32.60;27.00
65072;DHT22;51663;52.310;17.016;2022-11-04T11:16:16;32.60;27.00
65072;DHT22;51663;52.310;17.016;2022-11-04T11:19:21;32.60;27.20
65072;DHT22;51663;52.310;17.016;2022-11-04T11:22:33;32.50;27.50
65072;DHT22;51663;52.310;17.016;2022-11-04T11:25:40;32.40;27.30
65072;DHT22;51663;52.310;17.016;2022-11-04T11:28:51;32.50;27.40
65072;DHT22;51663;52.310;17.016;2022-11-04T11:32:00;32.40;27.40
65072;DHT22;51663;52.310;17.016;2022-11-04T11:35:02;32.60;27.00
65072;DHT22;51663;52.310;17.016;2022-11-04T11:38:22;32.80;27.00
65072;DHT22;51663;52.310;17.016;2022-11-04T11:41:26;32.60;27.40
65072;DHT22;51663;52.310;17.016;2022-11-04T11:44:40;32.90;27.10
65072;DHT22;51663;52.310;17.016;2022-11-04T11:47:48;32.60;27.10
65072;DHT22;51663;52.310;17.016;2022-11-04T11:50:56;32.90;27.20
65072;DHT22;51663;52.310;17.016;2022-11-04T11:57:39;32.70;27.30
65072;DHT22;51663;52.310;17.016;2022-11-04T12:04:23;32.60;27.10
65072;DHT22;51663;52.310;17.016;2022-11-04T12:07:55;32.00;27.90
65072;DHT22;51663;52.310;17.016;2022-11-04T12:11:24;31.50;28.20
65072;DHT22;51663;52.310;17.016;2022-11-04T12:18:25;31.20;29.00
65072;DHT22;51663;52.310;17.016;2022-11-04T12:21:33;31.70;28.90
65072;DHT22;51663;52.310;17.016;2022-11-04T13:02:24;33.30;28.10
65072;DHT22;51663;52.310;17.016;2022-11-04T13:05:35;33.10;28.30
65072;DHT22;51663;52.310;17.016;2022-11-04T13:08:41;33.20;28.20
65072;DHT22;51663;52.310;17.016;2022-11-04T13:11:56;33.20;28.30
65072;DHT22;51663;52.310;17.016;2022-11-04T13:15:02;33.20;28.30
65072;DHT22;51663;52.310;17.016;2022-11-04T13:18:06;33.20;28.40
65072;DHT22;51663;52.310;17.016;2022-11-04T13:21:20;32.90;28.60
65072;DHT22;51663;52.310;17.016;2022-11-04T13:24:27;32.90;28.80
65072;DHT22;51663;52.310;17.016;2022-11-04T13:27:36;32.70;28.90
65072;DHT22;51663;52.310;17.016;2022-11-04T13:37:58;32.70;29.10
65072;DHT22;51663;52.310;17.016;2022-11-04T13:44:27;32.40;29.30
65072;DHT22;51663;52.310;17.016;2022-11-04T13:47:37;32.50;29.20
65072;DHT22;51663;52.310;17.016;2022-11-04T13:50:43;32.50;29.20
65072;DHT22;51663;52.310;17.016;2022-11-04T13:53:51;32.50;29.30
65072;DHT22;51663;52.310;17.016;2022-11-04T13:57:16;32.70;29.20
65072;DHT22;51663;52.310;17.016;2022-11-04T14:00:22;32.70;29.00
65072;DHT22;51663;52.310;17.016;2022-11-04T14:06:54;32.50;29.20
65072;DHT22;51663;52.310;17.016;2022-11-04T14:09:56;32.30;29.40
65072;DHT22;51663;52.310;17.016;2022-11-04T14:16:37;32.30;29.60
65072;DHT22;51663;52.310;17.016;2022-11-04T14:19:57;32.20;29.70
65072;DHT22;51663;52.310;17.016;2022-11-04T14:23:01;32.00;29.70
65072;DHT22;51663;52.310;17.016;2022-11-04T14:26:15;31.80;29.80
65072;DHT22;51663;52.310;17.016;2022-11-04T14:29:24;31.40;30.00
65072;DHT22;51663;52.310;17.016;2022-11-04T14:32:32;31.50;30.00
65072;DHT22;51663;52.310;17.016;2022-11-04T14:35:35;31.50;30.20
65072;DHT22;51663;52.310;17.016;2022-11-04T14:38:38;31.80;30.60
65072;DHT22;51663;52.310;17.016;2022-11-04T14:44:45;31.80;29.90
65072;DHT22;51663;52.310;17.016;2022-11-04T14:47:54;31.40;30.00
65072;DHT22;51663;52.310;17.016;2022-11-04T14:50:57;31.40;30.00
65072;DHT22;51663;52.310;17.016;2022-11-04T14:54:09;31.20;30.40
65072;DHT22;51663;52.310;17.016;2022-11-04T14:57:18;31.20;30.40
65072;DHT22;51663;52.310;17.016;2022-11-04T15:00:38;31.10;30.50
65072;DHT22;51663;52.310;17.016;2022-11-04T15:03:52;31.60;30.20
65072;DHT22;51663;52.310;17.016;2022-11-04T15:10:34;31.30;30.40
65072;DHT22;51663;52.310;17.016;2022-11-04T15:16:48;31.40;31.00
65072;DHT22;51663;52.310;17.016;2022-11-04T15:19:53;31.30;30.30
65072;DHT22;51663;52.310;17.016;2022-11-04T15:22:59;31.30;30.30
65072;DHT22;51663;52.310;17.016;2022-11-04T15:26:03;31.60;29.90
65072;DHT22;51663;52.310;17.016;2022-11-04T15:29:11;31.80;29.70
65072;DHT22;51663;52.310;17.016;2022-11-04T15:32:16;31.70;29.70
65072;DHT22;51663;52.310;17.016;2022-11-04T15:35:19;31.70;29.60
65072;DHT22;51663;52.310;17.016;2022-11-04T15:38:24;31.90;29.90
65072;DHT22;51663;52.310;17.016;2022-11-04T15:41:30;32.20;29.40
65072;DHT22;51663;52.310;17.016;2022-11-04T15:44:53;32.10;29.20
65072;DHT22;51663;52.310;17.016;2022-11-04T15:51:33;31.90;29.30
65072;DHT22;51663;52.310;17.016;2022-11-04T15:54:39;32.00;29.80
65072;DHT22;51663;52.310;17.016;2022-11-04T15:57:44;31.70;29.20
65072;DHT22;51663;52.310;17.016;2022-11-04T16:00:54;31.80;29.40
65072;DHT22;51663;52.310;17.016;2022-11-04T16:04:00;31.80;29.40
65072;DHT22;51663;52.310;17.016;2022-11-04T16:13:25;31.90;29.40
65072;DHT22;51663;52.310;17.016;2022-11-04T16:16:28;32.00;29.20
65072;DHT22;51663;52.310;17.016;2022-11-04T16:19:30;32.20;29.10
65072;DHT22;51663;52.310;17.016;2022-11-04T16:22:37;32.20;28.90
65072;DHT22;51663;52.310;17.016;2022-11-04T16:25:43;32.30;29.00
65072;DHT22;51663;52.310;17.016;2022-11-04T16:28:45;32.20;29.00
65072;DHT22;51663;52.310;17.016;2022-11-04T16:35:18;31.60;29.60
65072;DHT22;51663;52.310;17.016;2022-11-04T16:38:21;31.60;29.40
65072;DHT22;51663;52.310;17.016;2022-11-04T16:41:25;31.80;29.40
65072;DHT22;51663;52.310;17.016;2022-11-04T16:44:28;31.80;29.20
65072;DHT22;51663;52.310;17.016;2022-11-04T16:47:31;31.70;29.70
65072;DHT22;51663;52.310;17.016;2022-11-04T16:50:35;31.60;29.20
65072;DHT22;51663;52.310;17.016;2022-11-04T16:53:37;31.70;29.20
65072;DHT22;51663;52.310;17.016;2022-11-04T16:56:39;31.60;29.20
65072;DHT22;51663;52.310;17.016;2022-11-04T16:59:41;31.80;29.20
65072;DHT22;51663;52.310;17.016;2022-11-04T17:02:44;32.00;29.00
65072;DHT22;51663;52.310;17.016;2022-11-04T17:05:56;32.00;28.80
65072;DHT22;51663;52.310;17.016;2022-11-04T17:09:00;31.70;29.00
65072;DHT22;51663;52.310;17.016;2022-11-04T17:12:03;31.50;29.20
65072;DHT22;51663;52.310;17.016;2022-11-04T17:15:05;31.60;29.20
65072;DHT22;51663;52.310;17.016;2022-11-04T17:18:14;31.60;29.20
65072;DHT22;51663;52.310;17.016;2022-11-04T17:21:18;31.90;29.10
65072;DHT22;51663;52.310;17.016;2022-11-04T17:24:21;32.20;28.70
65072;DHT22;51663;52.310;17.016;2022-11-04T17:27:23;32.20;28.60
65072;DHT22;51663;52.310;17.016;2022-11-04T17:30:26;32.40;28.60
65072;DHT22;51663;52.310;17.016;2022-11-04T17:33:28;32.30;28.50
65072;DHT22;51663;52.310;17.016;2022-11-04T17:36:30;32.50;28.50
65072;DHT22;51663;52.310;17.016;2022-11-04T17:39:33;32.50;28.30
65072;DHT22;51663;52.310;17.016;2022-11-04T17:42:35;32.50;28.30
65072;DHT22;51663;52.310;17.016;2022-11-04T17:45:55;32.40;28.30
65072;DHT22;51663;52.310;17.016;2022-11-04T17:49:22;32.50;28.30
65072;DHT22;51663;52.310;17.016;2022-11-04T17:52:26;32.50;28.50
65072;DHT22;51663;52.310;17.016;2022-11-04T17:55:28;32.40;28.60
65072;DHT22;51663;52.310;17.016;2022-11-04T17:58:30;32.40;28.60
65072;DHT22;51663;52.310;17.016;2022-11-04T18:01:34;32.30;28.70
65072;DHT22;51663;52.310;17.016;2022-11-04T18:04:36;32.20;28.80
65072;DHT22;51663;52.310;17.016;2022-11-04T18:07:38;31.90;29.00
65072;DHT22;51663;52.310;17.016;2022-11-04T18:10:41;32.10;29.40
65072;DHT22;51663;52.310;17.016;2022-11-04T18:13:43;32.20;29.30
65072;DHT22;51663;52.310;17.016;2022-11-04T18:16:47;32.30;29.20
65072;DHT22;51663;52.310;17.016;2022-11-04T18:19:51;32.40;29.30
65072;DHT22;51663;52.310;17.016;2022-11-04T18:22:53;32.50;29.40
65072;DHT22;51663;52.310;17.016;2022-11-04T18:26:07;32.50;29.20
65072;DHT22;51663;52.310;17.016;2022-11-04T18:29:09;32.70;29.20
65072;DHT22;51663;52.310;17.016;2022-11-04T18:32:11;32.50;29.20
65072;DHT22;51663;52.310;17.016;2022-11-04T18:35:14;32.50;29.30
65072;DHT22;51663;52.310;17.016;2022-11-04T18:38:16;32.60;29.30
65072;DHT22;51663;52.310;17.016;2022-11-04T18:41:18;32.60;29.30
65072;DHT22;51663;52.310;17.016;2022-11-04T18:44:21;32.60;29.80
65072;DHT22;51663;52.310;17.016;2022-11-04T18:47:23;32.50;29.80
65072;DHT22;51663;52.310;17.016;2022-11-04T18:50:27;32.40;29.40
65072;DHT22;51663;52.310;17.016;2022-11-04T18:53:31;32.20;29.40
65072;DHT22;51663;52.310;17.016;2022-11-04T18:56:33;32.20;29.30
65072;DHT22;51663;52.310;17.016;2022-11-04T18:59:36;32.40;29.60
65072;DHT22;51663;52.310;17.016;2022-11-04T19:02:38;32.40;29.60
65072;DHT22;51663;52.310;17.016;2022-11-04T19:05:41;32.30;29.50
65072;DHT22;51663;52.310;17.016;2022-11-04T19:08:44;32.30;29.60
65072;DHT22;51663;52.310;17.016;2022-11-04T19:11:48;32.40;29.60
65072;DHT22;51663;52.310;17.016;2022-11-04T19:15:10;32.20;29.60
65072;DHT22;51663;52.310;17.016;2022-11-04T19:18:13;32.20;29.60
65072;DHT22;51663;52.310;17.016;2022-11-04T19:21:18;31.80;29.80
65072;DHT22;51663;52.310;17.016;2022-11-04T19:24:20;32.00;29.70
65072;DHT22;51663;52.310;17.016;2022-11-04T19:27:22;31.90;29.80
65072;DHT22;51663;52.310;17.016;2022-11-04T19:30:26;31.90;29.90
65072;DHT22;51663;52.310;17.016;2022-11-04T19:33:28;31.80;30.00
65072;DHT22;51663;52.310;17.016;2022-11-04T19:36:33;32.00;29.90
65072;DHT22;51663;52.310;17.016;2022-11-04T19:39:35;31.90;29.90
65072;DHT22;51663;52.310;17.016;2022-11-04T19:42:37;31.50;30.00
65072;DHT22;51663;52.310;17.016;2022-11-04T19:46:00;32.00;29.90
65072;DHT22;51663;52.310;17.016;2022-11-04T19:49:11;31.70;30.00
65072;DHT22;51663;52.310;17.016;2022-11-04T19:52:14;31.80;29.90
65072;DHT22;51663;52.310;17.016;2022-11-04T19:55:25;31.60;30.00
65072;DHT22;51663;52.310;17.016;2022-11-04T19:58:27;31.70;29.90
65072;DHT22;51663;52.310;17.016;2022-11-04T20:01:31;31.60;30.10
65072;DHT22;51663;52.310;17.016;2022-11-04T20:04:36;31.80;30.00
65072;DHT22;51663;52.310;17.016;2022-11-04T20:07:48;31.30;30.20
65072;DHT22;51663;52.310;17.016;2022-11-04T20:10:55;31.50;30.40
65072;DHT22;51663;52.310;17.016;2022-11-04T20:13:58;31.70;30.20
65072;DHT22;51663;52.310;17.016;2022-11-04T20:17:08;32.00;29.90
65072;DHT22;51663;52.310;17.016;2022-11-04T20:20:11;31.80;30.00
65072;DHT22;51663;52.310;17.016;2022-11-04T20:23:13;31.60;30.00
65072;DHT22;51663;52.310;17.016;2022-11-04T20:26:18;31.50;30.40
65072;DHT22;51663;52.310;17.016;2022-11-04T20:29:21;31.70;30.30
65072;DHT22;51663;52.310;17.016;2022-11-04T20:32:24;31.80;30.00
65072;DHT22;51663;52.310;17.016;2022-11-04T20:35:26;32.10;29.90
65072;DHT22;51663;52.310;17.016;2022-11-04T20:38:29;32.20;29.90
65072;DHT22;51663;52.310;17.016;2022-11-04T20:41:31;32.20;29.70
65072;DHT22;51663;52.310;17.016;2022-11-04T20:44:34;32.30;29.80
65072;DHT22;51663;52.310;17.016;2022-11-04T20:47:36;32.20;29.90
65072;DHT22;51663;52.310;17.016;2022-11-04T20:50:38;32.30;29.90
65072;DHT22;51663;52.310;17.016;2022-11-04T20:53:42;32.40;29.80
65072;DHT22;51663;52.310;17.016;2022-11-04T20:56:44;32.40;29.80
65072;DHT22;51663;52.310;17.016;2022-11-04T20:59:46;32.30;29.90
65072;DHT22;51663;52.310;17.016;2022-11-04T21:02:48;32.30;29.90
65072;DHT22;51663;52.310;17.016;2022-11-04T21:05:51;32.30;29.90
65072;DHT22;51663;52.310;17.016;2022-11-04T21:08:56;32.20;29.90
65072;DHT22;51663;52.310;17.016;2022-11-04T21:11:58;32.20;30.00
65072;DHT22;51663;52.310;17.016;2022-11-04T21:15:01;32.00;30.10
65072;DHT22;51663;52.310;17.016;2022-11-04T21:18:03;31.90;30.10
65072;DHT22;51663;52.310;17.016;2022-11-04T21:21:07;31.90;30.40
65072;DHT22;51663;52.310;17.016;2022-11-04T21:24:12;31.80;30.50
65072;DHT22;51663;52.310;17.016;2022-11-04T21:27:14;31.80;30.50
65072;DHT22;51663;52.310;17.016;2022-11-04T21:30:16;31.80;30.50
65072;DHT22;51663;52.310;17.016;2022-11-04T21:33:19;31.70;30.60
65072;DHT22;51663;52.310;17.016;2022-11-04T21:36:22;31.70;30.80
65072;DHT22;51663;52.310;17.016;2022-11-04T21:39:29;31.60;30.80
65072;DHT22;51663;52.310;17.016;2022-11-04T21:42:40;31.50;30.90
65072;DHT22;51663;52.310;17.016;2022-11-04T21:58:50;30.60;30.80
65072;DHT22;51663;52.310;17.016;2022-11-04T22:01:52;29.90;33.80